Time;durP1;ratioP1;P1;durP2;ratioP2;P2;SDS_P1;SDS_P2;PMS_P1;PMS_P2;Temp;Humidity;BMP_temperature;BMP_pressure;BME280_temperature;BME280_humidity;BME280_pressure;Samples;Min_cycle;Max_cycle;Signal;HPM_P1;HPM_P2
2024/02/07 00:02:16;;;;;;;7.50;3.53;;;;;;;-3.70;72.95;97141.69;5115063;28;20075;-60
2024/02/07 00:04:42;;;;;;;4.68;3.58;;;;;;;-3.81;73.07;97136.31;5113983;28;20040;-60
2024/02/07 00:07:08;;;;;;;5.75;3.47;;;;;;;-3.89;73.04;97132.94;5115229;28;20048;-60
2024/02/07 00:09:33;;;;;;;8.18;3.58;;;;;;;-4.00;72.98;97130.97;5115071;28;20131;-60
2024/02/07 00:11:59;;;;;;;5.07;3.22;;;;;;;-4.03;73.11;97140.91;5115290;28;20566;-58
2024/02/07 00:14:25;;;;;;;7.18;3.78;;;;;;;-4.13;73.96;97136.91;5113713;28;20050;-57
2024/02/07 00:16:50;;;;;;;4.57;3.35;;;;;;;-4.16;74.19;97134.72;5113657;28;20046;-58
2024/02/07 00:19:16;;;;;;;7.00;3.63;;;;;;;-4.16;73.51;97131.34;5114899;28;20094;-60
2024/02/07 00:21:42;;;;;;;6.40;3.63;;;;;;;-4.19;73.80;97127.38;5113529;28;20108;-60
2024/02/07 00:24:07;;;;;;;5.78;3.47;;;;;;;-4.17;74.46;97130.56;5114895;28;20036;-61
2024/02/07 00:26:36;;;;;;;9.20;3.88;;;;;;;-4.18;73.95;97121.19;5114749;28;20105;-59
2024/02/07 00:29:02;;;;;;;4.13;3.20;;;;;;;-4.13;74.53;97129.16;5114369;28;20055;-59
2024/02/07 00:31:27;;;;;;;6.13;3.80;;;;;;;-4.13;73.57;97123.19;5114717;28;20055;-60
2024/02/07 00:33:54;;;;;;;6.10;3.78;;;;;;;-4.22;74.54;97130.34;5113435;28;20043;-62
2024/02/07 00:36:20;;;;;;;7.75;4.45;;;;;;;-4.25;73.63;97127.38;5114494;28;20040;-60
2024/02/07 00:38:46;;;;;;;7.30;4.72;;;;;;;-4.24;73.84;97127.16;5114576;28;20032;-60
2024/02/07 00:41:24;;;;;;;5.78;3.80;;;;;;;-4.20;73.55;97119.81;5113038;28;20051;-60
2024/02/07 00:43:51;;;;;;;7.07;4.22;;;;;;;-4.26;74.17;97111.06;5114387;28;20036;-62
2024/02/07 00:46:16;;;;;;;7.00;4.20;;;;;;;-4.25;73.96;97115.22;5114465;28;20535;-61
2024/02/07 00:48:42;;;;;;;5.72;3.70;;;;;;;-4.31;73.31;97108.25;5112850;28;20039;-60
2024/02/07 00:51:09;;;;;;;7.75;4.28;;;;;;;-4.38;72.79;97107.47;5112930;28;20043;-60
2024/02/07 00:53:35;;;;;;;9.13;3.92;;;;;;;-4.42;72.99;97112.22;5113027;28;20059;-61
2024/02/07 00:56:01;;;;;;;7.68;4.20;;;;;;;-4.49;73.21;97110.63;5114088;28;20116;-61
2024/02/07 00:58:26;;;;;;;6.68;4.43;;;;;;;-4.61;73.94;97113.81;5113849;28;20038;-61
2024/02/07 01:00:52;;;;;;;6.25;4.20;;;;;;;-4.70;73.71;97114.97;5112617;28;20120;-57
2024/02/07 01:03:20;;;;;;;5.68;4.35;;;;;;;-4.92;73.72;97106.56;5092068;28;20047;-59
2024/02/07 01:05:46;;;;;;;5.45;3.75;;;;;;;-4.96;74.46;97113.13;5093657;28;20101;-58
2024/02/07 01:08:11;;;;;;;6.45;4.55;;;;;;;-5.05;74.47;97116.88;5091853;28;20059;-60
2024/02/07 01:10:38;;;;;;;6.72;4.28;;;;;;;-5.19;75.32;97125.56;5093660;28;20070;-62
2024/02/07 01:13:04;;;;;;;6.47;4.20;;;;;;;-5.31;75.23;97120.13;5093659;28;20093;-60
2024/02/07 01:15:30;;;;;;;5.97;4.13;;;;;;;-5.45;75.20;97124.44;5102566;28;20039;-57
2024/02/07 01:17:55;;;;;;;6.40;4.10;;;;;;;-5.50;75.71;97113.88;5092431;28;20040;-60
2024/02/07 01:20:21;;;;;;;5.70;4.18;;;;;;;-5.59;76.59;97123.59;5113684;28;20039;-62
2024/02/07 01:22:47;;;;;;;6.43;4.05;;;;;;;-5.54;76.88;97112.69;5112849;28;20043;-60
2024/02/07 01:25:12;;;;;;;8.13;4.38;;;;;;;-5.54;77.15;97113.47;5113652;28;20043;-61
2024/02/07 01:27:39;;;;;;;5.85;4.68;;;;;;;-5.53;76.58;97107.34;5112265;28;20123;-60
2024/02/07 01:30:12;;;;;;;9.65;4.28;;;;;;;-5.57;76.86;97097.56;5094866;28;20533;-60
2024/02/07 01:32:44;;;;;;;6.60;4.35;;;;;;;-5.63;76.97;97096.53;5113690;28;20100;-60
2024/02/07 01:35:10;;;;;;;6.75;5.10;;;;;;;-5.64;77.06;97089.00;5093117;28;20422;-61
2024/02/07 01:37:38;;;;;;;9.02;4.68;;;;;;;-5.67;76.95;97087.59;5093196;28;20052;-61
2024/02/07 01:40:06;;;;;;;8.77;4.63;;;;;;;-5.79;77.19;97087.34;5090828;28;20031;-60
2024/02/07 01:42:32;;;;;;;8.63;5.32;;;;;;;-5.94;78.06;97076.38;5093013;28;20477;-59
2024/02/07 01:45:23;;;;;;;8.63;4.85;;;;;;;-5.98;78.21;97075.13;5092290;28;20506;-61
2024/02/07 01:47:49;;;;;;;6.35;4.63;;;;;;;-6.04;77.94;97075.88;5091570;28;20066;-59
2024/02/07 01:50:15;;;;;;;8.63;5.10;;;;;;;-6.15;78.48;97072.03;5096794;28;20496;-60
2024/02/07 01:52:45;;;;;;;8.73;5.65;;;;;;;-6.22;78.09;97066.84;5112759;28;20055;-59
2024/02/07 01:55:12;;;;;;;12.30;6.28;;;;;;;-6.27;78.61;97058.06;5094725;28;20495;-60
2024/02/07 01:57:39;;;;;;;9.32;5.72;;;;;;;-6.33;78.43;97049.31;5111708;28;20051;-59
2024/02/07 02:00:06;;;;;;;11.48;7.13;;;;;;;-6.34;79.48;97052.88;5112726;28;20035;-59
2024/02/07 02:02:38;;;;;;;13.77;6.32;;;;;;;-6.37;79.01;97060.97;5113080;28;20052;-59
2024/02/07 02:05:05;;;;;;;12.90;7.03;;;;;;;-6.43;79.78;97057.38;5094529;28;20090;-60
2024/02/07 02:07:31;;;;;;;9.75;6.65;;;;;;;-6.43;79.59;97061.72;5111374;28;20043;-58
2024/02/07 02:09:57;;;;;;;9.05;6.20;;;;;;;-6.40;79.60;97056.19;5111853;28;20046;-61
2024/02/07 02:12:22;;;;;;;11.90;6.25;;;;;;;-6.38;79.88;97054.25;5112847;27;20305;-60
2024/02/07 02:14:49;;;;;;;10.90;6.47;;;;;;;-6.32;79.35;97052.66;5112463;28;20118;-59
2024/02/07 02:17:15;;;;;;;10.75;5.93;;;;;;;-6.33;79.67;97048.50;5112551;28;20067;-60
2024/02/07 02:19:41;;;;;;;9.88;6.20;;;;;;;-6.31;79.69;97054.28;5112704;28;20075;-60
2024/02/07 02:22:27;;;;;;;10.50;5.78;;;;;;;-6.34;79.31;97036.63;5112576;28;20104;-60
2024/02/07 02:25:05;;;;;;;8.52;5.57;;;;;;;-6.38;79.41;97031.03;5112635;28;20082;-59
2024/02/07 02:28:02;;;;;;;8.82;6.13;;;;;;;-6.46;79.30;97034.53;5112583;28;20046;-61
2024/02/07 02:30:40;;;;;;;13.60;6.75;;;;;;;-6.59;79.39;97031.84;5093905;28;20055;-59
2024/02/07 02:33:09;;;;;;;11.05;5.80;;;;;;;-6.63;79.71;97028.84;5111223;28;20086;-60
2024/02/07 02:35:37;;;;;;;9.65;6.03;;;;;;;-6.63;80.70;97034.00;5093887;28;20035;-60
2024/02/07 02:38:03;;;;;;;11.30;5.97;;;;;;;-6.67;81.47;97037.94;5077315;28;20134;-59
2024/02/07 02:40:31;;;;;;;12.88;8.05;;;;;;;-6.58;81.08;97033.47;5112061;28;20127;-62
2024/02/07 02:42:58;;;;;;;12.52;7.40;;;;;;;-6.56;78.93;97030.69;5112563;28;20059;-60
2024/02/07 02:45:24;;;;;;;14.00;8.00;;;;;;;-6.58;79.25;97038.63;5111823;28;20489;-59
2024/02/07 02:47:50;;;;;;;15.13;7.68;;;;;;;-6.59;78.85;97039.59;5112282;28;20427;-61
2024/02/07 02:50:16;;;;;;;10.73;6.97;;;;;;;-6.61;78.03;97036.41;5111295;28;20036;-61
2024/02/07 02:52:42;;;;;;;11.05;7.10;;;;;;;-6.57;77.81;97034.25;5111788;28;20048;-61
2024/02/07 02:55:11;;;;;;;13.45;6.88;;;;;;;-6.57;77.85;97031.69;5111935;28;20036;-60
2024/02/07 02:57:38;;;;;;;13.73;7.50;;;;;;;-6.55;77.19;97027.94;5112177;28;20105;-60
2024/02/07 03:00:07;;;;;;;12.10;7.50;;;;;;;-6.61;76.42;97031.25;5111678;28;20291;-61
2024/02/07 03:02:33;;;;;;;15.60;8.80;;;;;;;-6.59;75.67;97016.38;5110546;28;20143;-59
2024/02/07 03:05:02;;;;;;;13.93;8.10;;;;;;;-6.57;75.58;97022.16;5109748;28;20140;-61
2024/02/07 03:10:13;;;;;;;15.48;9.05;;;;;;;-6.45;75.14;97019.88;5111724;28;19923;-60
2024/02/07 03:12:39;;;;;;;11.75;8.45;;;;;;;-6.45;74.78;97037.91;5110563;28;20044;-59
2024/02/07 03:15:05;;;;;;;17.10;9.25;;;;;;;-6.37;74.73;97022.31;5111753;28;20085;-61
2024/02/07 03:17:31;;;;;;;12.68;8.50;;;;;;;-6.22;74.09;97028.16;5110151;28;20124;-60
2024/02/07 03:19:57;;;;;;;12.48;8.30;;;;;;;-6.08;73.89;97023.09;5111139;28;20439;-60
2024/02/07 03:22:23;;;;;;;13.07;8.27;;;;;;;-5.94;73.46;97022.19;5111741;28;20529;-59
2024/02/07 03:24:55;;;;;;;13.40;8.63;;;;;;;-5.89;72.41;97017.22;5110622;28;20047;-60
2024/02/07 03:27:21;;;;;;;13.65;8.30;;;;;;;-5.83;72.45;97011.28;5093381;28;20040;-60
2024/02/07 03:29:47;;;;;;;14.18;8.38;;;;;;;-5.73;72.71;96998.03;5111594;28;20056;-60
2024/02/07 03:32:14;;;;;;;11.50;7.32;;;;;;;-5.72;72.17;96999.63;5110262;28;20528;-59
2024/02/07 03:34:41;;;;;;;12.65;7.20;;;;;;;-5.75;72.00;96997.44;5111403;28;20390;-59
2024/02/07 03:37:06;;;;;;;14.13;7.78;;;;;;;-5.78;71.39;96990.88;5093392;28;20180;-60
2024/02/07 03:39:33;;;;;;;14.48;7.65;;;;;;;-5.67;71.38;96983.56;5111617;28;20280;-60
2024/02/07 03:41:58;;;;;;;10.52;7.40;;;;;;;-5.58;70.98;96990.16;5110076;28;20508;-60
2024/02/07 03:44:24;;;;;;;14.95;7.78;;;;;;;-5.61;70.42;96987.97;5111708;28;20036;-59
2024/02/07 03:46:50;;;;;;;11.45;6.07;;;;;;;-5.60;70.71;96989.53;5110164;28;20054;-60
2024/02/07 03:49:16;;;;;;;10.45;6.00;;;;;;;-5.57;71.90;96984.00;5110305;28;20039;-61
2024/02/07 03:51:43;;;;;;;12.65;7.10;;;;;;;-5.57;72.00;96979.63;5111112;28;20433;-61
2024/02/07 03:54:09;;;;;;;9.68;6.40;;;;;;;-5.48;72.01;96969.91;5111594;28;20115;-61
2024/02/07 03:56:35;;;;;;;11.65;7.10;;;;;;;-5.37;71.46;96973.72;5093072;28;20101;-62
2024/02/07 03:59:04;;;;;;;16.65;8.10;;;;;;;-5.30;70.97;96967.56;5110322;28;20052;-61
2024/02/07 04:01:30;;;;;;;13.80;7.07;;;;;;;-5.25;70.89;96965.22;5092916;28;20043;-61
2024/02/07 04:03:56;;;;;;;12.73;6.85;;;;;;;-5.19;71.15;96955.88;5114710;28;20504;-61
2024/02/07 04:06:22;;;;;;;10.80;6.47;;;;;;;-5.08;71.61;96957.88;5113895;28;20084;-61
2024/02/07 04:08:48;;;;;;;16.15;7.97;;;;;;;-5.05;71.35;96948.94;5113929;28;20074;-60
2024/02/07 05:16:52;;;;;;;17.35;9.70;;;;;;;-5.05;70.66;96884.38;5112193;28;20333;-59
2024/02/07 05:19:17;;;;;;;15.75;9.20;;;;;;;-4.99;70.38;96873.22;5089595;28;20055;-61
2024/02/07 05:21:43;;;;;;;20.05;9.32;;;;;;;-4.92;70.81;96876.59;5111257;28;20056;-57
2024/02/07 05:24:10;;;;;;;18.63;10.05;;;;;;;-4.81;69.90;96883.75;5112544;28;20043;-61
2024/02/07 05:26:37;;;;;;;22.63;10.30;;;;;;;-4.79;70.33;96883.56;5113086;28;20127;-61
2024/02/07 05:29:03;;;;;;;18.48;9.77;;;;;;;-4.75;69.94;96865.84;5111766;28;20070;-60
2024/02/07 05:31:31;;;;;;;15.38;9.25;;;;;;;-4.72;69.38;96850.72;5094908;28;20039;-59
2024/02/07 05:33:57;;;;;;;18.42;9.27;;;;;;;-4.68;69.40;96859.66;5113554;28;20042;-61
2024/02/07 05:36:23;;;;;;;18.98;9.23;;;;;;;-4.68;70.09;96851.13;5111866;28;20052;-60
2024/02/07 05:38:48;;;;;;;21.90;9.40;;;;;;;-4.62;70.54;96837.38;5113436;27;20122;-60
2024/02/07 05:41:14;;;;;;;20.80;10.20;;;;;;;-4.59;69.78;96827.44;5109587;28;20048;-60
2024/02/07 05:43:40;;;;;;;20.60;10.43;;;;;;;-4.65;69.93;96814.50;5093274;28;20040;-58
2024/02/07 05:46:05;;;;;;;22.02;11.02;;;;;;;-4.57;70.21;96819.47;5111577;28;20051;-59
2024/02/07 05:48:32;;;;;;;22.70;11.52;;;;;;;-4.53;70.75;96818.06;5112292;28;20032;-57
2024/02/07 05:50:58;;;;;;;32.17;13.80;;;;;;;-4.48;71.50;96817.44;5111814;28;20447;-61
2024/02/07 05:53:24;;;;;;;28.65;15.15;;;;;;;-4.45;71.16;96804.13;5113006;28;20036;-58
2024/02/07 05:55:49;;;;;;;29.92;14.80;;;;;;;-4.35;70.27;96801.91;5112822;28;20122;-59
2024/02/07 05:58:15;;;;;;;21.98;13.07;;;;;;;-4.24;70.16;96795.25;5111741;28;20417;-62
2024/02/07 06:00:41;;;;;;;22.65;13.07;;;;;;;-4.20;70.51;96801.63;5094296;28;20535;-61
2024/02/07 06:03:08;;;;;;;30.77;14.02;;;;;;;-4.23;71.04;96795.06;5112395;27;20486;-59
2024/02/07 06:05:33;;;;;;;27.38;14.05;;;;;;;-4.13;70.82;96797.19;5094673;28;20103;-60
2024/02/07 06:07:59;;;;;;;28.35;15.10;;;;;;;-4.06;71.36;96794.56;5111472;28;20048;-61
2024/02/07 06:10:25;;;;;;;26.20;14.70;;;;;;;-4.16;70.83;96795.81;5111593;28;20083;-61
2024/02/07 06:12:50;;;;;;;27.13;14.88;;;;;;;-4.12;71.98;96791.84;5110893;28;20543;-61
2024/02/07 06:15:16;;;;;;;25.58;12.77;;;;;;;-4.01;71.50;96784.41;5110930;28;20032;-64
2024/02/07 06:17:42;;;;;;;24.75;13.13;;;;;;;-3.88;71.79;96785.13;5112492;28;20039;-60
2024/02/07 06:20:09;;;;;;;23.13;12.25;;;;;;;-3.73;72.09;96790.00;5110805;28;20413;-60
2024/02/07 06:22:35;;;;;;;28.88;13.77;;;;;;;-3.55;70.71;96796.25;5112421;28;20108;-58
2024/02/07 06:25:03;;;;;;;29.92;13.00;;;;;;;-3.47;70.38;96786.41;5111902;28;20485;-62
2024/02/07 06:27:30;;;;;;;26.45;12.63;;;;;;;-3.37;70.60;96765.22;5112385;28;20528;-60
2024/02/07 06:29:55;;;;;;;27.02;11.70;;;;;;;-3.24;70.24;96767.66;5111504;28;20054;-61
2024/02/07 06:32:21;;;;;;;24.05;11.60;;;;;;;-3.15;70.42;96746.66;5111685;28;20043;-60
2024/02/07 06:34:47;;;;;;;21.05;10.48;;;;;;;-3.13;70.87;96735.09;5093241;28;20035;-61
2024/02/07 06:37:12;;;;;;;19.88;9.10;;;;;;;-3.09;71.03;96740.63;5110588;28;20043;-60
2024/02/07 06:39:38;;;;;;;24.98;10.52;;;;;;;-3.01;70.35;96733.38;5109025;28;20031;-61
2024/02/07 06:42:04;;;;;;;19.00;10.10;;;;;;;-3.04;70.57;96720.84;5110132;28;20548;-59
2024/02/07 06:44:29;;;;;;;20.83;10.40;;;;;;;-3.04;70.36;96718.25;5110317;28;20533;-61
2024/02/07 06:46:56;;;;;;;22.33;10.95;;;;;;;-3.03;70.39;96719.84;5109917;28;20046;-60
2024/02/07 06:49:22;;;;;;;19.95;10.50;;;;;;;-3.05;69.65;96719.25;5087731;28;20100;-59
2024/02/07 06:51:47;;;;;;;29.83;10.93;;;;;;;-3.07;70.63;96720.47;5111071;28;20047;-59
2024/02/07 06:54:13;;;;;;;27.08;11.07;;;;;;;-3.22;70.49;96721.63;5106567;28;20040;-58
2024/02/07 06:56:39;;;;;;;18.73;10.30;;;;;;;-3.22;70.70;96713.06;5092440;27;20056;-58
2024/02/07 06:59:06;;;;;;;19.42;11.10;;;;;;;-3.18;70.73;96709.03;5110015;28;20039;-60
2024/02/07 07:01:31;;;;;;;21.83;10.80;;;;;;;-3.15;69.72;96700.03;5109518;28;20056;-61
2024/02/07 07:03:57;;;;;;;22.25;11.50;;;;;;;-3.13;69.76;96685.06;5111540;28;20066;-62
2024/02/07 07:06:23;;;;;;;20.02;11.23;;;;;;;-3.23;69.64;96672.63;5104808;28;20047;-59
2024/02/07 07:08:50;;;;;;;25.40;11.73;;;;;;;-3.25;69.95;96669.44;5090144;28;20044;-59
2024/02/07 07:11:16;;;;;;;21.65;11.80;;;;;;;-3.33;69.64;96656.78;5088856;28;20097;-58
2024/02/07 07:13:42;;;;;;;19.73;12.90;;;;;;;-3.27;70.24;96653.31;5102749;28;20051;-56
2024/02/07 07:16:07;;;;;;;27.30;12.50;;;;;;;-3.21;70.17;96642.09;5102500;28;20053;-58
2024/02/07 07:18:33;;;;;;;26.63;13.07;;;;;;;-3.16;70.02;96631.09;5106560;28;20039;-58
2024/02/07 07:20:59;;;;;;;21.52;12.73;;;;;;;-3.08;70.18;96617.84;5100590;28;20439;-57
2024/02/07 07:23:24;;;;;;;27.42;12.75;;;;;;;-3.16;70.08;96595.59;5104889;28;20027;-57
2024/02/07 07:25:50;;;;;;;24.85;11.90;;;;;;;-3.17;70.20;96596.63;5106992;28;20411;-59
2024/02/07 07:28:16;;;;;;;21.95;12.02;;;;;;;-3.12;70.55;96588.97;5105225;28;20511;-59
2024/02/07 07:30:41;;;;;;;17.13;10.48;;;;;;;-3.11;69.90;96584.59;5098802;28;20044;-61
2024/02/07 07:33:07;;;;;;;26.95;10.55;;;;;;;-3.12;70.42;96588.19;5104021;28;20046;-60
2024/02/07 07:35:33;;;;;;;21.85;10.68;;;;;;;-3.04;70.74;96611.22;5106086;28;20049;-58
2024/02/07 07:38:03;;;;;;;20.65;10.40;;;;;;;-2.98;69.62;96620.69;5109515;27;20513;-61
2024/02/07 07:40:29;;;;;;;21.58;10.80;;;;;;;-2.92;69.47;96637.97;5107080;28;20054;-61
2024/02/07 07:42:55;;;;;;;22.52;9.73;;;;;;;-2.84;69.76;96635.06;5087870;27;20043;-61
2024/02/07 07:45:20;;;;;;;24.00;10.88;;;;;;;-2.88;68.86;96602.03;5110221;27;20135;-63
2024/02/07 07:47:46;;;;;;;35.30;11.57;;;;;;;-2.85;69.01;96597.22;5093366;27;20482;-61
2024/02/07 07:50:12;;;;;;;27.20;10.43;;;;;;;-2.95;69.19;96601.34;5098532;27;20474;-63
2024/02/07 07:52:38;;;;;;;17.75;9.82;;;;;;;-2.91;69.58;96605.88;5114303;27;20054;-61
2024/02/07 07:55:04;;;;;;;23.60;9.50;;;;;;;-2.84;69.27;96603.97;5099460;28;20043;-62
2024/02/07 07:57:31;;;;;;;22.30;10.38;;;;;;;-2.79;68.64;96606.69;5096420;27;20047;-62
2024/02/07 07:59:56;;;;;;;23.10;9.80;;;;;;;-2.83;68.99;96610.72;5061695;28;20040;-65
2024/02/07 08:02:22;;;;;;;21.65;9.07;;;;;;;-2.94;69.73;96610.69;5103361;28;20047;-60
2024/02/07 08:04:49;;;;;;;19.40;9.20;;;;;;;-3.00;70.28;96600.19;5113522;28;20122;-60
2024/02/07 08:07:15;;;;;;;20.00;9.70;;;;;;;-3.06;70.41;96585.53;5114645;28;20089;-59
2024/02/07 08:09:42;;;;;;;16.52;8.43;;;;;;;-2.98;70.88;96574.03;5111739;28;20493;-60
2024/02/07 08:12:08;;;;;;;25.92;9.77;;;;;;;-3.00;70.29;96568.28;5095965;27;20077;-59
2024/02/07 08:14:34;;;;;;;24.23;9.68;;;;;;;-3.13;70.86;96551.13;5096807;28;20063;-61
2024/02/07 08:16:59;;;;;;;22.13;8.93;;;;;;;-3.10;71.16;96548.09;5114658;28;20505;-58
2024/02/07 08:19:25;;;;;;;19.42;9.13;;;;;;;-3.16;70.64;96548.97;5113790;28;20036;-59
2024/02/07 08:21:50;;;;;;;17.42;8.15;;;;;;;-3.25;70.48;96545.88;5113734;28;20078;-59
2024/02/07 08:24:16;;;;;;;18.63;8.73;;;;;;;-3.21;71.24;96536.69;5114079;28;20481;-59
2024/02/07 08:26:42;;;;;;;21.23;10.80;;;;;;;-3.18;70.61;96539.81;5095775;28;20142;-59
2024/02/07 08:29:07;;;;;;;36.92;16.52;;;;;;;-3.21;70.48;96522.91;5114214;28;20035;-58
2024/02/07 08:31:33;;;;;;;38.72;15.52;;;;;;;-3.23;71.01;96522.38;5113997;28;20524;-58
2024/02/07 08:33:59;;;;;;;23.52;12.77;;;;;;;-3.33;71.40;96532.44;5114476;28;20413;-58
2024/02/07 08:36:25;;;;;;;23.20;11.13;;;;;;;-3.36;71.30;96512.94;5113003;28;20435;-58
2024/02/07 08:38:51;;;;;;;17.92;10.00;;;;;;;-3.35;70.78;96493.81;5113398;28;20032;-56
2024/02/07 08:41:18;;;;;;;19.55;9.25;;;;;;;-3.46;70.56;96479.81;5112664;28;20044;-58
2024/02/07 08:43:45;;;;;;;22.15;10.07;;;;;;;-3.37;71.26;96454.41;5110302;28;20048;-59
2024/02/07 08:46:11;;;;;;;21.95;10.90;;;;;;;-3.27;71.22;96459.03;5113142;28;20035;-57
2024/02/07 08:48:36;;;;;;;20.95;10.63;;;;;;;-3.32;70.25;96456.34;5113559;28;20127;-55
2024/02/07 08:51:03;;;;;;;23.05;9.85;;;;;;;-3.48;70.60;96460.31;5102474;28;20524;-60
2024/02/07 08:53:29;;;;;;;17.55;9.70;;;;;;;-3.55;70.87;96468.19;5101126;28;20046;-59
2024/02/07 08:55:58;;;;;;;20.60;9.82;;;;;;;-3.62;71.11;96472.63;5093801;28;20552;-63
2024/02/07 08:58:24;;;;;;;15.35;8.73;;;;;;;-3.64;70.58;96471.31;5113414;28;20050;-62
2024/02/07 09:00:50;;;;;;;19.70;9.15;;;;;;;-3.68;70.59;96466.56;5113403;28;20484;-58
2024/02/07 09:03:16;;;;;;;16.65;8.63;;;;;;;-3.71;70.36;96461.78;5113887;28;20035;-59
2024/02/07 09:05:41;;;;;;;19.67;9.23;;;;;;;-3.66;70.01;96454.16;5112976;28;20065;-60
2024/02/07 09:08:07;;;;;;;20.67;9.70;;;;;;;-3.63;69.92;96446.97;5113615;28;20143;-60
2024/02/07 09:10:35;;;;;;;15.70;8.55;;;;;;;-3.62;70.23;96410.50;5111062;28;20089;-59
2024/02/07 09:13:01;;;;;;;15.93;8.88;;;;;;;-3.64;69.97;96412.53;5112022;28;20044;-60
2024/02/07 09:15:27;;;;;;;18.00;8.98;;;;;;;-3.60;70.22;96415.47;5113207;28;20032;-57
2024/02/07 09:17:53;;;;;;;22.33;9.48;;;;;;;-3.66;69.75;96402.38;5112881;28;20250;-60
2024/02/07 09:20:18;;;;;;;20.48;9.02;;;;;;;-3.57;70.49;96397.69;5110421;28;20040;-61
2024/02/07 09:22:44;;;;;;;17.00;9.93;;;;;;;-3.52;70.26;96391.88;5111142;28;20039;-59
2024/02/07 09:25:10;;;;;;;17.73;9.88;;;;;;;-3.54;69.47;96375.75;5109982;27;20036;-61
2024/02/07 09:27:36;;;;;;;18.13;9.85;;;;;;;-3.75;69.77;96343.38;5111657;28;20042;-60
2024/02/07 09:30:01;;;;;;;17.88;9.60;;;;;;;-3.76;69.91;96329.66;5110887;28;20461;-60
2024/02/07 09:33:04;;;;;;;18.60;9.45;;;;;;;-3.73;70.02;96329.22;5113180;28;20043;-60
2024/02/07 09:35:38;;;;;;;20.30;10.00;;;;;;;-3.70;69.89;96320.22;5091147;28;20497;-60
2024/02/07 09:38:03;;;;;;;23.30;10.43;;;;;;;-3.71;69.22;96303.88;5111240;28;20112;-61
2024/02/07 09:40:29;;;;;;;18.27;10.02;;;;;;;-3.68;69.43;96287.13;5112687;28;20070;-60
2024/02/07 09:42:55;;;;;;;16.25;9.32;;;;;;;-3.73;69.07;96272.28;5113047;28;20047;-60
2024/02/07 09:45:21;;;;;;;16.08;9.27;;;;;;;-3.80;69.07;96266.41;5110905;28;20123;-58
2024/02/07 09:48:15;;;;;;;19.55;9.68;;;;;;;-3.83;69.96;96268.66;5111430;28;20039;-60
2024/02/07 09:50:41;;;;;;;18.35;10.10;;;;;;;-3.76;70.52;96253.81;5112166;28;20039;-60
2024/02/07 09:53:08;;;;;;;18.85;9.05;;;;;;;-3.88;69.59;96233.09;5112805;28;20515;-61
2024/02/07 09:55:35;;;;;;;14.13;8.70;;;;;;;-3.85;70.48;96231.84;5110524;28;20070;-61
2024/02/07 09:58:01;;;;;;;21.45;8.82;;;;;;;-3.83;70.81;96222.84;5112013;28;20040;-60
2024/02/07 10:00:27;;;;;;;16.52;9.00;;;;;;;-3.84;71.03;96213.50;5110538;28;20042;-61
2024/02/07 10:02:53;;;;;;;17.42;9.43;;;;;;;-3.85;70.55;96209.38;5112273;28;20145;-59
2024/02/07 10:05:26;;;;;;;19.02;10.13;;;;;;;-3.80;70.43;96199.09;5111853;28;20036;-58
2024/02/07 10:07:54;;;;;;;18.30;9.88;;;;;;;-3.96;70.94;96190.22;5071546;28;20047;-62
2024/02/07 10:10:20;;;;;;;18.35;9.63;;;;;;;-3.92;71.16;96178.38;5109784;28;20271;-62
2024/02/07 10:12:46;;;;;;;15.13;8.80;;;;;;;-4.01;70.60;96163.44;5110481;28;20053;-58
2024/02/07 10:15:12;;;;;;;17.48;11.10;;;;;;;-3.89;71.31;96165.00;5110336;28;20509;-57
2024/02/07 10:17:38;;;;;;;20.27;10.65;;;;;;;-3.88;71.05;96156.25;5093697;28;20043;-60
2024/02/07 10:20:09;;;;;;;21.05;10.25;;;;;;;-3.95;70.56;96136.66;5112027;28;20051;-61
2024/02/07 10:22:39;;;;;;;17.20;9.55;;;;;;;-3.99;71.23;96131.16;5110766;28;20138;-61
2024/02/07 10:25:15;;;;;;;22.20;10.55;;;;;;;-3.98;71.21;96109.44;5111717;28;20051;-61
2024/02/07 10:27:42;;;;;;;19.05;10.07;;;;;;;-4.01;71.15;96096.16;5112165;28;20089;-61
2024/02/07 10:30:08;;;;;;;21.63;10.00;;;;;;;-4.07;70.95;96095.25;5110299;28;20074;-60
2024/02/07 10:32:36;;;;;;;15.38;9.02;;;;;;;-4.09;71.51;96099.09;5112089;28;20051;-59
2024/02/07 10:35:03;;;;;;;16.65;9.23;;;;;;;-4.06;72.31;96091.66;5110323;28;20071;-61
2024/02/07 10:37:40;;;;;;;15.50;8.20;;;;;;;-4.11;71.71;96083.81;5111875;28;20036;-62
2024/02/07 10:40:07;;;;;;;15.55;8.00;;;;;;;-4.16;71.34;96063.78;5111698;28;20119;-59
2024/02/07 10:42:32;;;;;;;17.10;8.77;;;;;;;-4.31;72.52;96053.09;5111852;28;20541;-60
2024/02/07 10:45:16;;;;;;;15.50;7.70;;;;;;;-4.35;73.08;96036.47;5093316;28;20084;-61
2024/02/07 10:47:42;;;;;;;15.93;8.05;;;;;;;-4.39;74.00;96023.19;5108676;28;20539;-61
2024/02/07 10:50:09;;;;;;;15.13;8.65;;;;;;;-4.23;73.15;96031.28;5111614;28;20134;-61
2024/02/07 10:52:38;;;;;;;17.45;9.38;;;;;;;-4.16;73.55;96024.19;5111151;28;20054;-58
2024/02/07 10:55:06;;;;;;;14.90;9.10;;;;;;;-4.35;72.75;96013.19;5110036;28;20066;-60
2024/02/07 10:57:38;;;;;;;19.08;9.18;;;;;;;-4.39;73.32;96015.41;5111545;28;20104;-60
2024/02/07 11:00:08;;;;;;;19.52;9.48;;;;;;;-4.40;74.03;96021.63;5111671;28;20048;-60
2024/02/07 11:02:34;;;;;;;20.50;10.32;;;;;;;-4.52;74.01;96018.25;5093726;28;20047;-60
2024/02/07 11:05:01;;;;;;;17.92;10.30;;;;;;;-4.65;75.09;96032.16;5111205;28;20074;-59
2024/02/07 11:07:27;;;;;;;16.02;7.85;;;;;;;-4.75;74.78;96039.66;5111216;28;20093;-59
2024/02/07 11:09:54;;;;;;;19.27;9.98;;;;;;;-4.75;75.15;96028.56;5111540;28;20055;-59
2024/02/07 11:12:20;;;;;;;18.52;10.50;;;;;;;-4.81;74.98;96025.06;5112467;28;20043;-59
2024/02/07 11:14:47;;;;;;;18.10;9.85;;;;;;;-4.80;75.29;96034.38;5115787;28;20137;-60
2024/02/07 11:17:14;;;;;;;22.20;11.00;;;;;;;-4.74;75.20;96027.53;5097189;28;20497;-59
2024/02/07 11:19:49;;;;;;;18.52;8.70;;;;;;;-4.83;75.63;96027.06;5111379;28;20130;-60
2024/02/07 11:22:25;;;;;;;19.77;10.18;;;;;;;-4.92;75.38;96012.91;5115733;28;20047;-59
2024/02/07 11:24:52;;;;;;;20.17;10.73;;;;;;;-4.93;75.68;96008.75;5114049;28;20445;-59
2024/02/07 11:27:18;;;;;;;22.15;11.15;;;;;;;-4.95;76.03;96016.72;5114597;28;20044;-57
2024/02/07 11:29:44;;;;;;;22.25;10.02;;;;;;;-4.90;75.63;96005.72;5114955;28;20059;-57
2024/02/07 11:32:11;;;;;;;22.20;9.70;;;;;;;-4.85;75.94;96013.59;5114183;28;20044;-59
2024/02/07 11:34:39;;;;;;;19.65;10.18;;;;;;;-4.93;75.70;95999.19;5114498;28;20042;-57
2024/02/07 11:37:08;;;;;;;18.83;9.13;;;;;;;-4.99;75.66;95991.56;5115047;28;20507;-59
2024/02/07 11:39:42;;;;;;;22.80;11.13;;;;;;;-5.03;76.36;95973.94;5114738;28;20497;-59
2024/02/07 11:42:15;;;;;;;22.77;11.30;;;;;;;-4.99;76.32;95960.56;5081079;28;20044;-60
2024/02/07 11:44:57;;;;;;;23.20;11.15;;;;;;;-5.04;76.11;95950.88;5114883;28;20039;-60
2024/02/07 11:47:27;;;;;;;20.35;10.02;;;;;;;-5.03;76.18;95949.88;5114565;28;20104;-59
2024/02/07 11:49:58;;;;;;;24.45;10.70;;;;;;;-5.04;76.91;95950.88;5115669;28;20040;-59
2024/02/07 11:52:32;;;;;;;23.45;10.50;;;;;;;-4.99;76.39;95938.09;5096991;28;20055;-60
2024/02/07 11:55:08;;;;;;;21.17;10.40;;;;;;;-5.04;76.24;95914.72;5112983;28;20112;-58
2024/02/07 11:57:34;;;;;;;18.60;9.75;;;;;;;-5.05;76.78;95913.94;5100561;28;20413;-61
2024/02/07 12:00:01;;;;;;;25.13;11.68;;;;;;;-5.01;77.00;95911.69;5114813;28;20039;-60
2024/02/07 12:02:31;;;;;;;26.63;12.05;;;;;;;-5.04;77.37;95918.09;5115126;28;20446;-59
2024/02/07 12:04:57;;;;;;;22.35;10.25;;;;;;;-5.14;77.91;95917.09;5113218;28;20039;-58
2024/02/07 12:07:28;;;;;;;23.80;11.32;;;;;;;-5.13;78.36;95908.31;5113491;28;20051;-59
2024/02/07 12:09:54;;;;;;;17.45;8.27;;;;;;;-5.16;78.22;95906.19;5113257;28;20058;-60
2024/02/07 12:12:20;;;;;;;13.13;8.02;;;;;;;-5.17;78.87;95884.75;5096112;28;20061;-60
2024/02/07 12:14:47;;;;;;;18.25;9.57;;;;;;;-5.12;79.35;95881.47;5079020;28;20073;-59
2024/02/07 12:17:13;;;;;;;17.70;8.50;;;;;;;-5.07;78.73;95866.88;5114122;28;20044;-58
2024/02/07 12:19:42;;;;;;;18.88;9.68;;;;;;;-5.05;79.14;95857.13;5113276;28;20088;-60
2024/02/07 12:22:21;;;;;;;16.88;8.00;;;;;;;-5.17;79.22;95846.03;5114414;28;20039;-59
2024/02/07 12:24:50;;;;;;;16.70;8.43;;;;;;;-5.21;79.25;95834.56;5113845;28;20044;-58
2024/02/07 12:27:16;;;;;;;15.82;8.38;;;;;;;-5.22;79.71;95833.00;5112949;28;20047;-61
2024/02/07 12:29:55;;;;;;;16.67;9.00;;;;;;;-5.23;79.47;95821.09;5112482;28;20048;-59
2024/02/07 12:32:22;;;;;;;22.77;10.33;;;;;;;-5.25;80.03;95805.81;5111686;28;20047;-59
2024/02/07 12:34:48;;;;;;;17.73;8.95;;;;;;;-5.29;79.65;95804.72;5093218;28;20285;-58